createdAt,value
2023-05-23T00:01:59.025Z,36.42
2023-05-23T00:04:32.790Z,32.80
2023-05-23T00:07:05.982Z,30.05
2023-05-23T00:09:39.178Z,27.90
2023-05-23T00:12:12.657Z,31.27
2023-05-23T00:14:45.871Z,38.43
2023-05-23T00:17:18.669Z,34.33
2023-05-23T00:19:52.025Z,34.47
2023-05-23T00:22:24.839Z,31.67
2023-05-23T00:24:57.783Z,28.38
2023-05-23T00:27:30.877Z,33.17
2023-05-23T00:30:04.470Z,34.13
2023-05-23T00:32:38.021Z,32.60
2023-05-23T00:35:11.160Z,36.00
2023-05-23T00:37:45.647Z,38.60
2023-05-23T00:40:19.013Z,29.20
2023-05-23T00:42:52.051Z,30.27
2023-05-23T00:45:24.968Z,29.80
2023-05-23T00:48:00.485Z,33.43
2023-05-23T00:50:33.752Z,33.27
2023-05-23T00:53:07.061Z,33.50
2023-05-23T00:55:40.585Z,35.93
2023-05-23T00:58:15.433Z,34.03
2023-05-23T01:00:50.481Z,34.67
2023-05-23T01:03:23.795Z,31.88
2023-05-23T01:05:56.990Z,32.50
2023-05-23T01:08:30.147Z,30.30
2023-05-23T01:11:18.589Z,29.03
2023-05-23T01:14:07.362Z,29.43
2023-05-23T01:16:56.163Z,30.33
2023-05-23T01:19:57.555Z,34.47
2023-05-23T01:22:55.300Z,32.10
2023-05-23T01:25:32.780Z,31.20
2023-05-23T01:28:08.764Z,30.20
2023-05-23T01:30:44.974Z,30.27
2023-05-23T01:33:21.122Z,33.30
2023-05-23T01:35:56.078Z,29.27
2023-05-23T01:38:30.109Z,32.63
2023-05-23T01:41:03.126Z,25.07
2023-05-23T01:43:37.624Z,26.50
2023-05-23T01:46:11.660Z,29.10
2023-05-23T01:48:46.291Z,25.93
2023-05-23T01:51:19.570Z,29.93
2023-05-23T01:53:53.240Z,29.20
2023-05-23T01:56:27.698Z,30.43
2023-05-23T01:59:02.237Z,29.10
2023-05-23T02:01:35.536Z,25.63
2023-05-23T02:04:09.049Z,25.73
2023-05-23T02:06:42.674Z,28.00
2023-05-23T02:09:19.001Z,29.73
2023-05-23T02:11:52.065Z,31.23
2023-05-23T02:14:26.677Z,29.70
2023-05-23T02:17:00.545Z,26.33
2023-05-23T02:19:33.991Z,29.67
2023-05-23T02:22:06.858Z,32.07
2023-05-23T02:24:39.962Z,30.30
2023-05-23T02:27:12.942Z,26.80
2023-05-23T02:29:45.953Z,31.77
2023-05-23T02:32:18.780Z,30.57
2023-05-23T02:34:51.970Z,27.50
2023-05-23T02:37:25.208Z,24.07
2023-05-23T02:39:58.391Z,25.60
2023-05-23T02:42:31.309Z,28.53
2023-05-23T02:45:04.784Z,28.20
2023-05-23T02:47:37.673Z,28.33
2023-05-23T02:50:11.219Z,29.17
2023-05-23T02:52:44.353Z,26.53
2023-05-23T02:55:17.476Z,32.23
2023-05-23T02:57:53.449Z,23.30
2023-05-23T03:00:28.308Z,27.90
2023-05-23T03:03:03.244Z,31.43
2023-05-23T03:05:36.824Z,23.80
2023-05-23T03:08:10.034Z,27.13
2023-05-23T03:10:42.983Z,26.53
2023-05-23T03:13:17.476Z,27.57
2023-05-23T03:15:50.777Z,29.60
2023-05-23T03:18:26.172Z,28.27
2023-05-23T03:20:59.229Z,24.43
2023-05-23T03:23:32.253Z,29.40
2023-05-23T03:26:06.585Z,31.33
2023-05-23T03:28:39.332Z,27.80
2023-05-23T03:31:12.167Z,24.83
2023-05-23T03:33:45.067Z,26.23
2023-05-23T03:36:18.715Z,19.73
2023-05-23T03:38:53.283Z,23.93
2023-05-23T03:41:26.772Z,27.03
2023-05-23T03:44:01.134Z,24.33
2023-05-23T03:46:34.857Z,26.30
2023-05-23T03:49:08.512Z,24.47
2023-05-23T03:51:42.161Z,23.23
2023-05-23T03:54:15.298Z,29.70
2023-05-23T03:56:48.383Z,21.47
2023-05-23T03:59:21.593Z,25.37
2023-05-23T04:01:58.681Z,24.20
2023-05-23T04:04:32.531Z,25.53
2023-05-23T04:07:05.958Z,28.53
2023-05-23T04:09:39.328Z,29.42
2023-05-23T04:12:14.462Z,27.90
2023-05-23T04:14:48.443Z,25.10
2023-05-23T04:17:21.399Z,27.10
2023-05-23T04:19:54.594Z,25.47
2023-05-23T04:22:28.122Z,24.13
2023-05-23T04:25:01.008Z,20.43
2023-05-23T04:27:40.552Z,21.33
2023-05-23T04:30:18.251Z,17.77
2023-05-23T04:32:52.230Z,17.80
2023-05-23T04:35:29.546Z,19.50
2023-05-23T04:38:04.187Z,20.53
2023-05-23T04:40:38.485Z,17.90
2023-05-23T04:43:42.899Z,17.70
2023-05-23T04:46:45.325Z,22.03
2023-05-23T04:49:34.256Z,19.03
2023-05-23T04:52:08.743Z,17.23
2023-05-23T04:54:46.546Z,15.57
2023-05-23T04:57:20.615Z,16.47
2023-05-23T04:59:53.561Z,16.50
2023-05-23T05:02:27.366Z,15.43
2023-05-23T05:05:00.395Z,16.53
2023-05-23T05:07:35.703Z,15.57
2023-05-23T05:10:16.840Z,18.35
2023-05-23T05:12:50.525Z,17.87
2023-05-23T05:15:24.792Z,14.30
2023-05-23T05:18:01.541Z,11.07
2023-05-23T05:20:36.082Z,12.53
2023-05-23T05:23:10.046Z,11.60
2023-05-23T05:25:43.502Z,11.53
2023-05-23T05:28:16.691Z,11.07
2023-05-23T05:30:54.120Z,10.87
2023-05-23T05:33:29.715Z,10.27
2023-05-23T05:36:10.292Z,10.07
2023-05-23T05:38:43.383Z,11.73
2023-05-23T05:41:16.670Z,9.50
2023-05-23T05:43:54.295Z,8.23
2023-05-23T05:46:28.916Z,9.33
2023-05-23T05:49:02.792Z,9.30
2023-05-23T05:51:36.331Z,9.63
2023-05-23T05:54:09.359Z,8.50
2023-05-23T05:56:42.391Z,10.33
2023-05-23T05:59:16.448Z,9.88
2023-05-23T06:01:51.361Z,9.17
2023-05-23T06:04:24.537Z,8.73
2023-05-23T06:06:57.692Z,8.43
2023-05-23T06:09:30.548Z,7.50
2023-05-23T06:12:07.967Z,6.93
2023-05-23T06:14:40.715Z,6.80
2023-05-23T06:17:15.120Z,8.27
2023-05-23T06:19:50.429Z,7.00
2023-05-23T06:22:23.571Z,6.78
2023-05-23T06:24:56.776Z,6.77
2023-05-23T06:27:30.689Z,5.83
2023-05-23T06:30:05.738Z,7.67
2023-05-23T06:32:38.712Z,7.43
2023-05-23T06:35:11.691Z,7.10
2023-05-23T06:37:45.807Z,7.03
2023-05-23T06:40:20.152Z,5.87
2023-05-23T06:42:53.092Z,7.30
2023-05-23T06:45:50.633Z,7.37
2023-05-23T06:48:24.014Z,6.50
2023-05-23T06:50:57.394Z,5.90
2023-05-23T06:53:31.128Z,6.93
2023-05-23T06:56:04.341Z,5.83
2023-05-23T06:58:44.139Z,7.57
2023-05-23T07:01:18.995Z,6.30
2023-05-23T07:03:54.493Z,8.23
2023-05-23T07:06:28.176Z,6.60
2023-05-23T07:09:02.599Z,8.80
2023-05-23T07:11:36.876Z,5.37
2023-05-23T07:14:10.930Z,7.07
2023-05-23T07:16:47.685Z,5.37
2023-05-23T07:19:20.856Z,6.38
2023-05-23T07:21:57.492Z,5.00
2023-05-23T07:24:30.647Z,6.67
2023-05-23T07:27:03.839Z,5.53
2023-05-23T07:29:37.130Z,5.60
2023-05-23T07:32:10.137Z,5.00
2023-05-23T07:34:45.259Z,4.47
2023-05-23T07:37:18.459Z,4.37
2023-05-23T07:39:51.533Z,4.53
2023-05-23T07:42:24.729Z,4.07
2023-05-23T07:44:57.711Z,4.80
2023-05-23T07:47:32.982Z,3.30
2023-05-23T07:50:06.922Z,3.67
2023-05-23T07:52:39.874Z,3.83
2023-05-23T07:55:13.908Z,3.10
2023-05-23T07:57:47.769Z,3.33
2023-05-23T08:00:21.256Z,4.27
2023-05-23T08:03:00.258Z,3.25
2023-05-23T08:05:39.454Z,3.63
2023-05-23T08:08:13.042Z,3.20
2023-05-23T08:10:47.025Z,2.78
2023-05-23T08:13:27.355Z,3.40
2023-05-23T08:16:27.861Z,3.22
2023-05-23T08:19:01.089Z,2.40
2023-05-23T08:21:36.450Z,6.20
2023-05-23T08:24:09.406Z,2.67
2023-05-23T08:26:43.279Z,2.80
2023-05-23T08:29:18.713Z,2.47
2023-05-23T08:31:52.438Z,3.20
2023-05-23T08:34:25.376Z,9.95
2023-05-23T08:36:59.208Z,1.98
2023-05-23T08:39:32.350Z,3.22
2023-05-23T08:42:24.144Z,2.75
2023-05-23T08:44:57.298Z,3.22
2023-05-23T08:47:33.469Z,2.53
2023-05-23T08:50:13.091Z,2.83
2023-05-23T08:52:57.365Z,3.35
2023-05-23T08:55:31.547Z,1.85
2023-05-23T08:58:07.298Z,2.28
2023-05-23T09:00:57.776Z,2.60
2023-05-23T09:03:33.107Z,2.40
2023-05-23T09:06:22.165Z,1.88
2023-05-23T09:08:55.013Z,2.35
2023-05-23T09:11:30.128Z,2.55
2023-05-23T09:14:05.338Z,2.67
2023-05-23T09:16:39.002Z,2.55
2023-05-23T09:19:19.104Z,2.10
2023-05-23T09:21:58.050Z,1.70
2023-05-23T09:24:38.222Z,2.72
2023-05-23T09:27:14.739Z,1.83
2023-05-23T09:29:49.076Z,2.85
2023-05-23T09:32:24.446Z,2.67
2023-05-23T09:34:59.044Z,2.70
2023-05-23T09:37:37.813Z,2.13
2023-05-23T09:40:13.231Z,2.83
2023-05-23T09:42:51.297Z,3.08
2023-05-23T09:45:31.408Z,2.60
2023-05-23T09:48:13.015Z,2.45
2023-05-23T09:50:47.059Z,3.25
2023-05-23T09:53:21.840Z,2.40
2023-05-23T09:55:56.255Z,2.72
2023-05-23T09:58:30.442Z,3.58
2023-05-23T10:01:07.647Z,4.00
2023-05-23T10:03:50.208Z,4.50
2023-05-23T10:06:35.454Z,3.25
2023-05-23T10:09:15.375Z,5.30
2023-05-23T10:12:00.316Z,3.45
2023-05-23T10:14:38.078Z,2.78
2023-05-23T10:17:20.206Z,4.25
2023-05-23T10:20:04.680Z,3.00
2023-05-23T10:22:38.550Z,3.97
2023-05-23T10:25:11.680Z,3.72
2023-05-23T10:27:44.789Z,4.00
2023-05-23T10:30:17.881Z,4.38
2023-05-23T10:32:52.168Z,4.05
2023-05-23T10:35:50.885Z,2.95
2023-05-23T10:38:40.219Z,4.53
2023-05-23T10:41:26.403Z,4.03
2023-05-23T10:44:20.150Z,5.18
2023-05-23T10:46:59.028Z,3.03
2023-05-23T10:49:41.678Z,3.53
2023-05-23T10:52:17.373Z,2.92
2023-05-23T10:54:53.161Z,3.00
2023-05-23T10:57:29.378Z,3.67
2023-05-23T11:00:02.476Z,2.75
2023-05-23T11:02:35.515Z,3.50
2023-05-23T11:05:24.956Z,2.42
2023-05-23T11:08:14.503Z,3.20
2023-05-23T11:11:07.852Z,3.30
2023-05-23T11:13:57.341Z,2.22
2023-05-23T11:16:32.764Z,2.45
2023-05-23T11:19:22.981Z,2.58
2023-05-23T11:22:05.874Z,3.03
2023-05-23T11:24:52.395Z,2.65
2023-05-23T11:27:32.434Z,2.70
2023-05-23T11:30:13.635Z,2.83
2023-05-23T11:32:52.913Z,1.98
2023-05-23T11:35:26.729Z,3.38
2023-05-23T11:38:00.041Z,2.67
2023-05-23T11:40:37.267Z,2.45
2023-05-23T11:43:11.876Z,3.08
2023-05-23T11:45:46.858Z,3.30
2023-05-23T11:48:20.088Z,2.60
2023-05-23T11:50:54.291Z,3.75
2023-05-23T11:53:28.733Z,3.83
2023-05-23T11:56:03.216Z,2.63
2023-05-23T11:58:37.581Z,2.55
2023-05-23T12:01:11.893Z,3.22
2023-05-23T12:03:50.619Z,2.88
2023-05-23T12:06:25.236Z,4.30
2023-05-23T12:08:59.632Z,2.63
2023-05-23T12:11:33.201Z,3.40
2023-05-23T12:14:07.198Z,2.53
2023-05-23T12:16:40.253Z,3.70
2023-05-23T12:19:14.033Z,1.83
2023-05-23T12:21:48.987Z,2.92
2023-05-23T12:24:23.279Z,3.28
2023-05-23T12:26:59.751Z,2.80
2023-05-23T12:29:38.130Z,3.58
2023-05-23T12:32:11.150Z,3.63
2023-05-23T12:34:44.200Z,2.40
2023-05-23T12:37:20.172Z,2.75
2023-05-23T12:39:53.641Z,3.03
2023-05-23T12:42:27.816Z,2.05
2023-05-23T12:45:02.225Z,2.42
2023-05-23T12:47:35.031Z,3.30
2023-05-23T12:50:08.529Z,2.58
2023-05-23T12:52:41.810Z,2.80
2023-05-23T12:55:14.929Z,2.33
2023-05-23T12:57:48.160Z,4.13
2023-05-23T13:00:21.856Z,3.85
2023-05-23T13:02:54.661Z,2.85
2023-05-23T13:05:27.738Z,3.15
2023-05-23T13:08:01.125Z,3.10
2023-05-23T13:10:34.243Z,2.63
2023-05-23T13:13:07.374Z,2.30
2023-05-23T13:15:40.776Z,2.47
2023-05-23T13:18:14.517Z,2.58
2023-05-23T13:20:47.322Z,3.05
2023-05-23T13:23:20.385Z,5.35
2023-05-23T13:25:53.944Z,3.95
2023-05-23T13:28:27.242Z,3.50
2023-05-23T13:31:00.526Z,3.92
2023-05-23T13:33:33.915Z,3.70
2023-05-23T13:36:07.046Z,3.35
2023-05-23T13:38:40.182Z,4.10
2023-05-23T13:41:13.980Z,4.30
2023-05-23T13:43:47.681Z,4.25
2023-05-23T13:46:20.563Z,3.47
2023-05-23T13:48:55.438Z,4.05
2023-05-23T13:51:28.460Z,6.07
2023-05-23T13:54:02.417Z,4.15
2023-05-23T13:56:35.589Z,3.90
2023-05-23T13:59:09.025Z,3.20
2023-05-23T14:01:42.041Z,3.65
2023-05-23T14:04:15.244Z,3.35
2023-05-23T14:06:48.070Z,4.82
2023-05-23T14:09:23.053Z,3.78
2023-05-23T14:11:56.480Z,3.92
2023-05-23T14:14:29.401Z,5.10
2023-05-23T14:17:02.138Z,3.58
2023-05-23T14:19:35.278Z,4.40
2023-05-23T14:22:08.107Z,3.95
2023-05-23T14:24:41.359Z,4.57
2023-05-23T14:27:14.806Z,4.15
2023-05-23T14:29:48.963Z,4.63
2023-05-23T14:32:22.448Z,4.75
2023-05-23T14:34:55.891Z,5.50
2023-05-23T14:37:28.682Z,4.28
2023-05-23T14:40:01.546Z,4.13
2023-05-23T14:42:34.630Z,4.05
2023-05-23T14:45:07.841Z,5.20
2023-05-23T14:47:40.749Z,3.70
2023-05-23T14:50:13.898Z,6.95
2023-05-23T14:52:46.787Z,4.38
2023-05-23T14:55:19.612Z,7.40
2023-05-23T14:57:52.918Z,6.38
2023-05-23T15:00:25.823Z,4.90
2023-05-23T15:02:59.028Z,5.20
2023-05-23T15:05:32.109Z,5.65
2023-05-23T15:08:05.282Z,4.97
2023-05-23T15:10:38.387Z,6.90
2023-05-23T15:13:12.322Z,5.32
2023-05-23T15:15:45.337Z,3.83
2023-05-23T15:18:31.644Z,7.15
2023-05-23T15:21:08.916Z,6.93
2023-05-23T15:23:41.883Z,4.82
2023-05-23T15:26:14.796Z,4.45
2023-05-23T15:28:47.845Z,3.75
2023-05-23T15:31:21.029Z,4.88
2023-05-23T15:33:53.990Z,8.43
2023-05-23T15:36:26.788Z,5.72
2023-05-23T15:38:59.654Z,4.75
2023-05-23T15:41:32.537Z,3.65
2023-05-23T15:44:06.108Z,3.85
2023-05-23T15:46:38.981Z,3.40
2023-05-23T15:49:21.694Z,4.03
2023-05-23T15:51:58.544Z,6.65
2023-05-23T15:54:31.581Z,2.65
2023-05-23T15:57:04.825Z,4.20
2023-05-23T15:59:38.979Z,3.75
2023-05-23T16:02:11.875Z,3.58
2023-05-23T16:04:45.375Z,6.25
2023-05-23T16:07:18.664Z,3.38
2023-05-23T16:09:51.569Z,4.72
2023-05-23T16:12:24.634Z,4.95
2023-05-23T16:14:57.760Z,4.22
2023-05-23T16:17:30.560Z,3.05
2023-05-23T16:20:04.551Z,7.18
2023-05-23T16:22:37.346Z,2.97
2023-05-23T16:25:11.796Z,3.47
2023-05-23T16:27:44.967Z,4.22
2023-05-23T16:30:18.970Z,4.63
2023-05-23T16:32:51.762Z,3.85
2023-05-23T16:35:24.837Z,3.67
2023-05-23T16:37:57.676Z,4.32
2023-05-23T16:40:30.487Z,3.53
2023-05-23T16:43:04.469Z,4.50
2023-05-23T16:45:39.202Z,4.30
2023-05-23T16:48:13.462Z,4.53
2023-05-23T16:50:46.748Z,6.85
2023-05-23T16:53:19.891Z,5.63
2023-05-23T16:55:53.541Z,3.22
2023-05-23T16:58:26.384Z,4.70
2023-05-23T17:00:59.178Z,6.05
2023-05-23T17:03:32.072Z,4.53
2023-05-23T17:06:05.151Z,4.05
2023-05-23T17:08:37.918Z,4.28
2023-05-23T17:11:10.819Z,3.67
2023-05-23T17:13:44.178Z,4.43
2023-05-23T17:16:20.493Z,4.03
2023-05-23T17:18:53.893Z,6.78
2023-05-23T17:21:27.411Z,7.90
2023-05-23T17:24:00.363Z,4.18
2023-05-23T17:26:33.457Z,6.67
2023-05-23T17:29:06.643Z,4.53
2023-05-23T17:31:39.512Z,3.47
2023-05-23T17:34:12.875Z,4.97
2023-05-23T17:36:45.996Z,3.78
2023-05-23T17:39:19.401Z,3.30
2023-05-23T17:41:52.381Z,3.73
2023-05-23T17:44:25.182Z,5.18
2023-05-23T17:46:58.091Z,4.33
2023-05-23T17:49:31.635Z,3.60
2023-05-23T17:52:06.197Z,5.93
2023-05-23T17:54:39.509Z,3.63
2023-05-23T17:57:12.455Z,4.32
2023-05-23T17:59:45.440Z,2.80
2023-05-23T18:02:19.798Z,4.68
2023-05-23T18:04:52.945Z,3.60
2023-05-23T18:07:25.874Z,3.33
2023-05-23T18:09:59.952Z,3.47
2023-05-23T18:12:32.734Z,3.58
2023-05-23T18:15:06.696Z,2.92
2023-05-23T18:17:39.845Z,3.75
2023-05-23T18:20:13.339Z,4.20
2023-05-23T18:22:46.696Z,4.53
2023-05-23T18:25:23.079Z,3.60
2023-05-23T18:27:58.585Z,13.50
2023-05-23T18:30:31.621Z,6.13
2023-05-23T18:33:04.559Z,3.30
2023-05-23T18:35:37.465Z,5.30
2023-05-23T18:38:11.049Z,4.18
2023-05-23T18:40:44.072Z,3.30
2023-05-23T18:43:17.772Z,9.13
2023-05-23T18:45:50.938Z,4.00
2023-05-23T18:48:24.382Z,6.80
2023-05-23T18:50:57.780Z,3.53
2023-05-23T18:53:30.995Z,5.88
2023-05-23T18:56:04.069Z,3.90
2023-05-23T18:58:38.883Z,4.70
2023-05-23T19:01:11.953Z,2.72
2023-05-23T19:03:46.109Z,5.00
2023-05-23T19:06:19.331Z,3.08
2023-05-23T19:08:52.151Z,2.97
2023-05-23T19:11:25.272Z,2.45
2023-05-23T19:13:59.024Z,4.50
2023-05-23T19:16:32.008Z,2.97
2023-05-23T19:19:05.803Z,4.45
2023-05-23T19:21:39.061Z,5.50
2023-05-23T19:24:12.381Z,2.60
2023-05-23T19:26:45.370Z,5.88
2023-05-23T19:29:18.172Z,6.80
2023-05-23T19:31:50.986Z,4.83
2023-05-23T19:34:23.990Z,4.57
2023-05-23T19:36:57.857Z,2.87
2023-05-23T19:39:31.038Z,3.50
2023-05-23T19:42:04.104Z,4.60
2023-05-23T19:44:37.196Z,2.80
2023-05-23T19:47:10.154Z,2.25
2023-05-23T19:49:43.284Z,5.32
2023-05-23T19:52:16.072Z,4.90
2023-05-23T19:54:49.175Z,7.20
2023-05-23T19:57:22.460Z,5.63
2023-05-23T19:59:55.335Z,5.33
2023-05-23T20:02:28.140Z,9.30
2023-05-23T20:05:01.141Z,4.87
2023-05-23T20:07:34.280Z,2.83
2023-05-23T20:10:08.245Z,5.47
2023-05-23T20:12:41.794Z,3.30
2023-05-23T20:15:15.959Z,2.77
2023-05-23T20:17:52.374Z,7.47
2023-05-23T20:20:25.506Z,5.20
2023-05-23T20:22:58.301Z,7.30
2023-05-23T20:25:31.598Z,2.97
2023-05-23T20:28:04.450Z,4.57
2023-05-23T20:30:37.702Z,3.53
2023-05-23T20:33:11.673Z,3.57
2023-05-23T20:35:48.505Z,4.63
2023-05-23T20:38:21.415Z,5.33
2023-05-23T20:40:54.721Z,6.33
2023-05-23T20:43:29.104Z,3.50
2023-05-23T20:46:01.883Z,4.33
2023-05-23T20:48:34.782Z,7.87
2023-05-23T20:51:08.324Z,4.90
2023-05-23T20:53:41.862Z,6.93
2023-05-23T20:56:14.792Z,3.00
2023-05-23T20:58:47.804Z,4.37
2023-05-23T21:01:23.098Z,4.67
2023-05-23T21:03:56.345Z,2.77
2023-05-23T21:06:29.460Z,5.57
2023-05-23T21:09:02.536Z,5.40
2023-05-23T21:11:36.006Z,5.37
2023-05-23T21:14:08.829Z,4.93
2023-05-23T21:16:41.666Z,5.47
2023-05-23T21:19:15.004Z,3.43
2023-05-23T21:21:47.963Z,5.67
2023-05-23T21:24:20.771Z,3.20
2023-05-23T21:26:53.669Z,5.03
2023-05-23T21:29:26.643Z,5.33
2023-05-23T21:31:59.504Z,6.40
2023-05-23T21:34:32.343Z,5.17
2023-05-23T21:37:07.642Z,5.40
2023-05-23T21:39:51.153Z,15.33
2023-05-23T21:42:25.582Z,3.43
2023-05-23T21:44:58.418Z,5.27
2023-05-23T21:47:32.600Z,4.30
2023-05-23T21:50:06.185Z,5.70
2023-05-23T21:52:39.303Z,3.30
2023-05-23T21:55:12.142Z,5.20
2023-05-23T21:57:45.142Z,4.47
2023-05-23T22:00:19.591Z,3.00
2023-05-23T22:02:53.353Z,4.00
2023-05-23T22:05:26.784Z,3.63
2023-05-23T22:07:59.793Z,3.93
2023-05-23T22:10:34.782Z,4.47
2023-05-23T22:13:07.729Z,4.07
2023-05-23T22:15:40.642Z,3.17
2023-05-23T22:18:13.776Z,4.53
2023-05-23T22:20:48.468Z,3.47
2023-05-23T22:23:21.434Z,5.53
2023-05-23T22:25:54.254Z,3.43
2023-05-23T22:28:27.266Z,5.57
2023-05-23T22:31:02.241Z,4.73
2023-05-23T22:33:35.244Z,4.70
2023-05-23T22:36:09.645Z,4.73
2023-05-23T22:38:42.457Z,3.30
2023-05-23T22:41:15.397Z,3.83
2023-05-23T22:43:48.228Z,6.93
2023-05-23T22:46:21.298Z,5.67
2023-05-23T22:48:55.488Z,6.40
2023-05-23T22:51:29.292Z,5.30
2023-05-23T22:54:02.711Z,5.93
2023-05-23T22:56:35.829Z,7.83
2023-05-23T22:59:09.036Z,3.33
2023-05-23T23:01:42.235Z,4.10
2023-05-23T23:04:15.562Z,4.73
2023-05-23T23:06:48.817Z,6.57
2023-05-23T23:09:22.807Z,2.93
2023-05-23T23:11:55.566Z,2.53
2023-05-23T23:14:28.815Z,6.33
2023-05-23T23:17:01.997Z,2.60
2023-05-23T23:19:35.577Z,3.27
2023-05-23T23:22:08.679Z,7.50
2023-05-23T23:24:42.265Z,3.60
2023-05-23T23:27:15.205Z,6.87
2023-05-23T23:29:48.311Z,5.57
2023-05-23T23:32:21.400Z,5.13
2023-05-23T23:34:55.114Z,7.40
2023-05-23T23:37:28.006Z,8.77
2023-05-23T23:40:01.044Z,6.30
2023-05-23T23:42:34.461Z,6.03
2023-05-23T23:45:07.772Z,5.63
2023-05-23T23:47:43.305Z,5.03
2023-05-23T23:50:16.509Z,8.60
2023-05-23T23:52:49.908Z,5.97
2023-05-23T23:55:23.084Z,5.60
2023-05-23T23:57:56.160Z,2.67
